Terminal Aerodrome Forecast
Issued by NWS

Home | Current Version | Previous Version | Text Only | Print | Product List | Glossary On
Versions: 1 2 3 4 5 6 7 8 9 10 11 12 13
396
FTUS42 TJSJ 201730
TAFNCM
TAF
TNCM 201730Z 2018/2118 16010KT P6SM VCSH FEW020 SCT040
     FM210300 22007KT P6SM VCSH SCT018 SCT022
     FM211200 31017KT P6SM FEW030=

USA.gov is the U.S. government's official web portal to all federal, state and local government web resources and services.